sensor_id;sensor_type;location;lat;lon;timestamp;P1;durP1;ratioP1;P2;durP2;ratioP2
74644;SDS011;63163;55.630;37.594;2023-03-14T00:00:10;4.0;;;2.0;;
74644;SDS011;63163;55.630;37.594;2023-03-14T00:01:12;4.0;;;1.9;;
74644;SDS011;63163;55.630;37.594;2023-03-14T00:02:13;4.3;;;1.8;;
74644;SDS011;63163;55.630;37.594;2023-03-14T00:03:13;4.8;;;2.2;;
74644;SDS011;63163;55.630;37.594;2023-03-14T00:04:14;5.1;;;2.2;;
74644;SDS011;63163;55.630;37.594;2023-03-14T00:05:14;5.7;;;2.0;;
74644;SDS011;63163;55.630;37.594;2023-03-14T00:06:18;3.5;;;2.1;;
74644;SDS011;63163;55.630;37.594;2023-03-14T00:07:20;4.5;;;2.0;;
74644;SDS011;63163;55.630;37.594;2023-03-14T00:08:23;4.9;;;1.8;;
74644;SDS011;63163;55.630;37.594;2023-03-14T00:09:28;4.3;;;2.0;;
74644;SDS011;63163;55.630;37.594;2023-03-14T00:10:33;5.0;;;2.1;;
74644;SDS011;63163;55.630;37.594;2023-03-14T00:11:39;4.5;;;2.0;;
74644;SDS011;63163;55.630;37.594;2023-03-14T00:12:42;5.6;;;1.8;;
74644;SDS011;63163;55.630;37.594;2023-03-14T00:13:46;4.8;;;1.9;;
74644;SDS011;63163;55.630;37.594;2023-03-14T00:14:50;4.7;;;1.7;;
74644;SDS011;63163;55.630;37.594;2023-03-14T00:15:54;4.1;;;2.1;;
74644;SDS011;63163;55.630;37.594;2023-03-14T00:16:57;4.7;;;2.2;;
74644;SDS011;63163;55.630;37.594;2023-03-14T00:18:01;4.1;;;1.8;;
74644;SDS011;63163;55.630;37.594;2023-03-14T00:19:05;4.1;;;1.8;;
74644;SDS011;63163;55.630;37.594;2023-03-14T00:20:09;3.7;;;2.0;;
74644;SDS011;63163;55.630;37.594;2023-03-14T00:21:14;5.4;;;1.7;;
74644;SDS011;63163;55.630;37.594;2023-03-14T00:22:18;4.0;;;1.8;;
74644;SDS011;63163;55.630;37.594;2023-03-14T00:23:21;4.1;;;2.1;;
74644;SDS011;63163;55.630;37.594;2023-03-14T00:24:25;4.9;;;1.9;;
74644;SDS011;63163;55.630;37.594;2023-03-14T00:25:29;4.3;;;1.8;;
74644;SDS011;63163;55.630;37.594;2023-03-14T00:26:32;3.7;;;1.9;;
74644;SDS011;63163;55.630;37.594;2023-03-14T00:27:36;3.6;;;1.7;;
74644;SDS011;63163;55.630;37.594;2023-03-14T00:28:40;3.1;;;1.9;;
74644;SDS011;63163;55.630;37.594;2023-03-14T00:29:44;3.1;;;1.9;;
74644;SDS011;63163;55.630;37.594;2023-03-14T00:30:47;4.2;;;1.6;;
74644;SDS011;63163;55.630;37.594;2023-03-14T00:31:51;4.1;;;1.8;;
74644;SDS011;63163;55.630;37.594;2023-03-14T00:32:54;4.0;;;1.9;;
74644;SDS011;63163;55.630;37.594;2023-03-14T00:33:58;5.1;;;2.0;;
74644;SDS011;63163;55.630;37.594;2023-03-14T00:35:02;3.9;;;1.5;;
74644;SDS011;63163;55.630;37.594;2023-03-14T00:36:07;3.1;;;1.7;;
74644;SDS011;63163;55.630;37.594;2023-03-14T00:37:13;3.8;;;1.8;;
74644;SDS011;63163;55.630;37.594;2023-03-14T00:38:17;3.9;;;1.4;;
74644;SDS011;63163;55.630;37.594;2023-03-14T00:39:20;2.8;;;1.3;;
74644;SDS011;63163;55.630;37.594;2023-03-14T00:40:24;5.0;;;1.9;;
74644;SDS011;63163;55.630;37.594;2023-03-14T00:41:27;4.3;;;1.7;;
74644;SDS011;63163;55.630;37.594;2023-03-14T00:42:31;5.3;;;1.7;;
74644;SDS011;63163;55.630;37.594;2023-03-14T00:43:35;5.4;;;1.7;;
74644;SDS011;63163;55.630;37.594;2023-03-14T00:44:38;3.9;;;1.7;;
74644;SDS011;63163;55.630;37.594;2023-03-14T00:45:42;3.0;;;1.5;;
74644;SDS011;63163;55.630;37.594;2023-03-14T00:46:46;3.8;;;1.7;;
74644;SDS011;63163;55.630;37.594;2023-03-14T00:47:49;2.4;;;1.4;;
74644;SDS011;63163;55.630;37.594;2023-03-14T00:48:53;3.4;;;1.7;;
74644;SDS011;63163;55.630;37.594;2023-03-14T00:49:56;5.3;;;1.7;;
74644;SDS011;63163;55.630;37.594;2023-03-14T00:51:00;3.7;;;1.6;;
74644;SDS011;63163;55.630;37.594;2023-03-14T00:52:04;4.5;;;1.5;;
74644;SDS011;63163;55.630;37.594;2023-03-14T00:53:04;3.4;;;1.5;;
74644;SDS011;63163;55.630;37.594;2023-03-14T00:54:05;4.5;;;1.9;;
74644;SDS011;63163;55.630;37.594;2023-03-14T00:55:06;3.2;;;1.7;;
74644;SDS011;63163;55.630;37.594;2023-03-14T00:56:07;3.3;;;1.5;;
74644;SDS011;63163;55.630;37.594;2023-03-14T00:57:08;2.0;;;1.4;;
74644;SDS011;63163;55.630;37.594;2023-03-14T00:58:09;4.5;;;1.6;;
74644;SDS011;63163;55.630;37.594;2023-03-14T00:59:10;3.4;;;1.5;;
74644;SDS011;63163;55.630;37.594;2023-03-14T01:00:11;3.5;;;1.7;;
74644;SDS011;63163;55.630;37.594;2023-03-14T01:01:13;3.3;;;1.3;;
74644;SDS011;63163;55.630;37.594;2023-03-14T01:02:14;3.8;;;1.4;;
74644;SDS011;63163;55.630;37.594;2023-03-14T01:03:14;2.9;;;1.4;;
74644;SDS011;63163;55.630;37.594;2023-03-14T01:04:15;3.6;;;1.4;;
74644;SDS011;63163;55.630;37.594;2023-03-14T01:05:16;3.2;;;1.5;;
74644;SDS011;63163;55.630;37.594;2023-03-14T01:06:18;2.4;;;1.5;;
74644;SDS011;63163;55.630;37.594;2023-03-14T01:07:18;2.6;;;1.4;;
74644;SDS011;63163;55.630;37.594;2023-03-14T01:08:19;4.1;;;1.6;;
74644;SDS011;63163;55.630;37.594;2023-03-14T01:09:19;2.5;;;1.4;;
74644;SDS011;63163;55.630;37.594;2023-03-14T01:10:20;2.3;;;1.3;;
74644;SDS011;63163;55.630;37.594;2023-03-14T01:11:21;3.3;;;1.3;;
74644;SDS011;63163;55.630;37.594;2023-03-14T01:12:22;1.9;;;1.6;;
74644;SDS011;63163;55.630;37.594;2023-03-14T01:13:23;2.7;;;1.5;;
74644;SDS011;63163;55.630;37.594;2023-03-14T01:14:23;3.7;;;1.4;;
74644;SDS011;63163;55.630;37.594;2023-03-14T01:15:24;3.4;;;1.6;;
74644;SDS011;63163;55.630;37.594;2023-03-14T01:16:25;3.3;;;1.6;;
74644;SDS011;63163;55.630;37.594;2023-03-14T01:17:29;3.3;;;1.4;;
74644;SDS011;63163;55.630;37.594;2023-03-14T01:18:32;3.8;;;1.5;;
74644;SDS011;63163;55.630;37.594;2023-03-14T01:19:36;2.8;;;1.4;;
74644;SDS011;63163;55.630;37.594;2023-03-14T01:20:40;3.1;;;1.6;;
74644;SDS011;63163;55.630;37.594;2023-03-14T01:21:43;3.4;;;1.7;;
74644;SDS011;63163;55.630;37.594;2023-03-14T01:22:47;4.6;;;1.6;;
74644;SDS011;63163;55.630;37.594;2023-03-14T01:23:51;4.4;;;1.6;;
74644;SDS011;63163;55.630;37.594;2023-03-14T01:24:55;3.4;;;1.7;;
74644;SDS011;63163;55.630;37.594;2023-03-14T01:25:58;2.9;;;1.4;;
74644;SDS011;63163;55.630;37.594;2023-03-14T01:27:02;2.4;;;1.3;;
74644;SDS011;63163;55.630;37.594;2023-03-14T01:28:05;4.0;;;1.6;;
74644;SDS011;63163;55.630;37.594;2023-03-14T01:29:09;2.9;;;1.4;;
74644;SDS011;63163;55.630;37.594;2023-03-14T01:30:13;2.9;;;1.4;;
74644;SDS011;63163;55.630;37.594;2023-03-14T01:31:17;3.6;;;1.6;;
74644;SDS011;63163;55.630;37.594;2023-03-14T01:32:21;3.2;;;1.5;;
74644;SDS011;63163;55.630;37.594;2023-03-14T01:33:21;4.8;;;1.7;;
74644;SDS011;63163;55.630;37.594;2023-03-14T01:34:22;3.5;;;1.9;;
74644;SDS011;63163;55.630;37.594;2023-03-14T01:35:22;2.6;;;1.5;;
74644;SDS011;63163;55.630;37.594;2023-03-14T01:36:23;5.0;;;1.8;;
74644;SDS011;63163;55.630;37.594;2023-03-14T01:37:23;2.8;;;1.5;;
74644;SDS011;63163;55.630;37.594;2023-03-14T01:38:24;2.8;;;1.5;;
74644;SDS011;63163;55.630;37.594;2023-03-14T01:39:25;3.9;;;1.7;;
74644;SDS011;63163;55.630;37.594;2023-03-14T01:40:25;2.9;;;1.6;;
74644;SDS011;63163;55.630;37.594;2023-03-14T01:41:26;4.3;;;1.8;;
74644;SDS011;63163;55.630;37.594;2023-03-14T01:42:26;3.5;;;1.7;;
74644;SDS011;63163;55.630;37.594;2023-03-14T01:43:27;3.2;;;1.5;;
74644;SDS011;63163;55.630;37.594;2023-03-14T01:44:27;2.8;;;1.7;;
74644;SDS011;63163;55.630;37.594;2023-03-14T01:47:35;3.8;;;1.9;;
74644;SDS011;63163;55.630;37.594;2023-03-14T01:48:37;3.8;;;1.6;;
74644;SDS011;63163;55.630;37.594;2023-03-14T01:49:38;2.8;;;1.7;;
74644;SDS011;63163;55.630;37.594;2023-03-14T01:50:39;4.6;;;1.7;;
74644;SDS011;63163;55.630;37.594;2023-03-14T01:51:42;3.4;;;1.7;;
74644;SDS011;63163;55.630;37.594;2023-03-14T01:52:44;4.8;;;1.8;;
74644;SDS011;63163;55.630;37.594;2023-03-14T01:53:45;4.5;;;1.9;;
74644;SDS011;63163;55.630;37.594;2023-03-14T01:54:48;3.2;;;1.8;;
74644;SDS011;63163;55.630;37.594;2023-03-14T01:55:50;4.8;;;1.8;;
74644;SDS011;63163;55.630;37.594;2023-03-14T01:56:53;3.8;;;1.8;;
74644;SDS011;63163;55.630;37.594;2023-03-14T01:57:56;3.9;;;1.7;;
74644;SDS011;63163;55.630;37.594;2023-03-14T01:58:58;3.8;;;1.6;;
74644;SDS011;63163;55.630;37.594;2023-03-14T02:00:03;4.9;;;1.6;;
74644;SDS011;63163;55.630;37.594;2023-03-14T02:01:05;2.5;;;1.6;;
74644;SDS011;63163;55.630;37.594;2023-03-14T02:02:07;5.4;;;2.1;;
74644;SDS011;63163;55.630;37.594;2023-03-14T02:03:10;3.6;;;1.9;;
74644;SDS011;63163;55.630;37.594;2023-03-14T02:04:12;4.5;;;2.0;;
74644;SDS011;63163;55.630;37.594;2023-03-14T02:05:14;6.0;;;1.8;;
74644;SDS011;63163;55.630;37.594;2023-03-14T02:06:17;3.4;;;1.9;;
74644;SDS011;63163;55.630;37.594;2023-03-14T02:07:20;3.7;;;1.9;;
74644;SDS011;63163;55.630;37.594;2023-03-14T02:08:22;3.1;;;1.7;;
74644;SDS011;63163;55.630;37.594;2023-03-14T02:09:24;3.6;;;1.8;;
74644;SDS011;63163;55.630;37.594;2023-03-14T02:10:26;5.1;;;2.1;;
74644;SDS011;63163;55.630;37.594;2023-03-14T02:11:28;4.7;;;2.4;;
74644;SDS011;63163;55.630;37.594;2023-03-14T02:12:28;3.5;;;2.0;;
74644;SDS011;63163;55.630;37.594;2023-03-14T02:13:29;4.1;;;2.1;;
74644;SDS011;63163;55.630;37.594;2023-03-14T02:14:30;5.0;;;2.2;;
74644;SDS011;63163;55.630;37.594;2023-03-14T02:15:31;3.9;;;1.9;;
74644;SDS011;63163;55.630;37.594;2023-03-14T02:16:32;3.4;;;2.0;;
74644;SDS011;63163;55.630;37.594;2023-03-14T02:17:34;4.7;;;2.2;;
74644;SDS011;63163;55.630;37.594;2023-03-14T02:18:35;4.4;;;2.0;;
74644;SDS011;63163;55.630;37.594;2023-03-14T02:19:40;4.0;;;2.1;;
74644;SDS011;63163;55.630;37.594;2023-03-14T02:20:45;3.9;;;2.1;;
74644;SDS011;63163;55.630;37.594;2023-03-14T02:21:49;4.9;;;2.3;;
74644;SDS011;63163;55.630;37.594;2023-03-14T02:22:54;4.2;;;2.3;;
74644;SDS011;63163;55.630;37.594;2023-03-14T02:23:57;4.7;;;2.3;;
74644;SDS011;63163;55.630;37.594;2023-03-14T02:25:00;5.4;;;2.1;;
74644;SDS011;63163;55.630;37.594;2023-03-14T02:26:06;3.3;;;2.1;;
74644;SDS011;63163;55.630;37.594;2023-03-14T02:27:09;4.1;;;1.5;;
74644;SDS011;63163;55.630;37.594;2023-03-14T02:28:10;4.5;;;2.0;;
74644;SDS011;63163;55.630;37.594;2023-03-14T02:29:11;7.8;;;2.5;;
74644;SDS011;63163;55.630;37.594;2023-03-14T02:30:13;7.8;;;2.5;;
74644;SDS011;63163;55.630;37.594;2023-03-14T02:31:15;7.0;;;2.7;;
74644;SDS011;63163;55.630;37.594;2023-03-14T02:32:16;5.3;;;2.1;;
74644;SDS011;63163;55.630;37.594;2023-03-14T02:33:17;5.4;;;2.1;;
74644;SDS011;63163;55.630;37.594;2023-03-14T02:34:18;4.8;;;2.5;;
74644;SDS011;63163;55.630;37.594;2023-03-14T02:35:20;5.3;;;2.4;;
74644;SDS011;63163;55.630;37.594;2023-03-14T02:36:22;3.9;;;2.2;;
74644;SDS011;63163;55.630;37.594;2023-03-14T02:37:23;5.2;;;2.4;;
74644;SDS011;63163;55.630;37.594;2023-03-14T02:38:27;6.1;;;2.5;;
74644;SDS011;63163;55.630;37.594;2023-03-14T02:39:30;3.8;;;2.2;;
74644;SDS011;63163;55.630;37.594;2023-03-14T02:40:35;5.5;;;2.3;;
74644;SDS011;63163;55.630;37.594;2023-03-14T02:41:35;5.0;;;2.5;;
74644;SDS011;63163;55.630;37.594;2023-03-14T02:42:36;4.7;;;2.5;;
74644;SDS011;63163;55.630;37.594;2023-03-14T02:43:37;5.1;;;2.6;;
74644;SDS011;63163;55.630;37.594;2023-03-14T02:44:46;6.3;;;2.7;;
74644;SDS011;63163;55.630;37.594;2023-03-14T02:45:47;5.9;;;2.6;;
74644;SDS011;63163;55.630;37.594;2023-03-14T02:46:48;4.1;;;2.5;;
74644;SDS011;63163;55.630;37.594;2023-03-14T02:47:49;4.1;;;1.9;;
74644;SDS011;63163;55.630;37.594;2023-03-14T02:48:53;4.7;;;2.5;;
74644;SDS011;63163;55.630;37.594;2023-03-14T02:49:56;5.9;;;2.6;;
74644;SDS011;63163;55.630;37.594;2023-03-14T02:50:59;4.0;;;2.5;;
74644;SDS011;63163;55.630;37.594;2023-03-14T02:52:00;6.3;;;2.7;;
74644;SDS011;63163;55.630;37.594;2023-03-14T02:53:00;6.7;;;2.5;;
74644;SDS011;63163;55.630;37.594;2023-03-14T02:54:01;4.5;;;2.4;;
74644;SDS011;63163;55.630;37.594;2023-03-14T02:55:02;4.8;;;2.5;;
74644;SDS011;63163;55.630;37.594;2023-03-14T02:56:04;5.4;;;2.6;;
74644;SDS011;63163;55.630;37.594;2023-03-14T02:57:04;5.2;;;2.9;;
74644;SDS011;63163;55.630;37.594;2023-03-14T02:58:05;6.7;;;2.7;;
74644;SDS011;63163;55.630;37.594;2023-03-14T02:59:06;6.0;;;2.8;;
74644;SDS011;63163;55.630;37.594;2023-03-14T03:00:07;6.9;;;2.8;;
74644;SDS011;63163;55.630;37.594;2023-03-14T03:01:08;4.7;;;2.3;;
74644;SDS011;63163;55.630;37.594;2023-03-14T03:02:09;6.1;;;2.8;;
74644;SDS011;63163;55.630;37.594;2023-03-14T03:03:09;3.2;;;2.1;;
74644;SDS011;63163;55.630;37.594;2023-03-14T03:04:09;5.2;;;2.8;;
74644;SDS011;63163;55.630;37.594;2023-03-14T03:05:10;5.6;;;2.7;;
74644;SDS011;63163;55.630;37.594;2023-03-14T03:06:10;4.8;;;2.8;;
74644;SDS011;63163;55.630;37.594;2023-03-14T03:07:11;6.1;;;2.7;;
74644;SDS011;63163;55.630;37.594;2023-03-14T03:08:12;5.7;;;2.9;;
74644;SDS011;63163;55.630;37.594;2023-03-14T03:09:12;6.5;;;3.0;;
74644;SDS011;63163;55.630;37.594;2023-03-14T03:10:13;4.1;;;2.2;;
74644;SDS011;63163;55.630;37.594;2023-03-14T03:11:13;5.4;;;2.7;;
74644;SDS011;63163;55.630;37.594;2023-03-14T03:12:14;4.7;;;2.1;;
74644;SDS011;63163;55.630;37.594;2023-03-14T03:13:14;5.6;;;2.7;;
74644;SDS011;63163;55.630;37.594;2023-03-14T03:14:15;4.0;;;2.4;;
74644;SDS011;63163;55.630;37.594;2023-03-14T03:15:15;5.9;;;3.0;;
74644;SDS011;63163;55.630;37.594;2023-03-14T03:16:16;5.1;;;2.7;;
74644;SDS011;63163;55.630;37.594;2023-03-14T03:17:16;5.5;;;2.8;;
74644;SDS011;63163;55.630;37.594;2023-03-14T03:18:17;5.6;;;2.9;;
74644;SDS011;63163;55.630;37.594;2023-03-14T03:19:17;6.1;;;2.6;;
74644;SDS011;63163;55.630;37.594;2023-03-14T03:20:18;6.2;;;2.8;;
74644;SDS011;63163;55.630;37.594;2023-03-14T03:21:18;4.1;;;2.4;;
74644;SDS011;63163;55.630;37.594;2023-03-14T03:22:23;4.2;;;2.1;;
74644;SDS011;63163;55.630;37.594;2023-03-14T03:23:23;7.1;;;3.1;;
74644;SDS011;63163;55.630;37.594;2023-03-14T03:24:24;5.6;;;3.2;;
74644;SDS011;63163;55.630;37.594;2023-03-14T03:25:24;6.0;;;3.2;;
74644;SDS011;63163;55.630;37.594;2023-03-14T03:26:25;4.0;;;2.5;;
74644;SDS011;63163;55.630;37.594;2023-03-14T03:27:26;5.8;;;3.0;;
74644;SDS011;63163;55.630;37.594;2023-03-14T03:28:26;5.0;;;3.2;;
74644;SDS011;63163;55.630;37.594;2023-03-14T03:29:27;5.8;;;3.3;;
74644;SDS011;63163;55.630;37.594;2023-03-14T03:30:27;5.8;;;3.3;;
74644;SDS011;63163;55.630;37.594;2023-03-14T03:31:28;5.2;;;2.4;;
74644;SDS011;63163;55.630;37.594;2023-03-14T03:32:29;8.2;;;3.8;;
74644;SDS011;63163;55.630;37.594;2023-03-14T03:33:29;9.0;;;3.8;;
74644;SDS011;63163;55.630;37.594;2023-03-14T03:34:30;5.9;;;3.1;;
74644;SDS011;63163;55.630;37.594;2023-03-14T03:35:30;5.7;;;3.3;;
74644;SDS011;63163;55.630;37.594;2023-03-14T03:36:31;6.6;;;3.6;;
74644;SDS011;63163;55.630;37.594;2023-03-14T03:37:31;6.9;;;4.0;;
74644;SDS011;63163;55.630;37.594;2023-03-14T03:38:32;8.7;;;3.4;;
74644;SDS011;63163;55.630;37.594;2023-03-14T03:39:33;5.9;;;3.5;;
74644;SDS011;63163;55.630;37.594;2023-03-14T03:40:33;8.5;;;3.4;;
74644;SDS011;63163;55.630;37.594;2023-03-14T03:41:34;6.0;;;3.1;;
74644;SDS011;63163;55.630;37.594;2023-03-14T03:42:34;6.2;;;3.4;;
74644;SDS011;63163;55.630;37.594;2023-03-14T03:43:35;8.3;;;3.5;;
74644;SDS011;63163;55.630;37.594;2023-03-14T03:44:36;7.4;;;3.4;;
74644;SDS011;63163;55.630;37.594;2023-03-14T03:45:37;5.7;;;3.3;;
74644;SDS011;63163;55.630;37.594;2023-03-14T03:46:37;9.3;;;3.8;;
74644;SDS011;63163;55.630;37.594;2023-03-14T03:47:38;4.9;;;2.7;;
74644;SDS011;63163;55.630;37.594;2023-03-14T03:48:38;6.7;;;3.5;;
74644;SDS011;63163;55.630;37.594;2023-03-14T03:49:39;7.8;;;3.3;;
74644;SDS011;63163;55.630;37.594;2023-03-14T03:50:43;6.3;;;3.5;;
74644;SDS011;63163;55.630;37.594;2023-03-14T03:51:43;4.0;;;2.4;;
74644;SDS011;63163;55.630;37.594;2023-03-14T03:52:44;5.5;;;3.2;;
74644;SDS011;63163;55.630;37.594;2023-03-14T03:53:44;7.7;;;3.3;;
74644;SDS011;63163;55.630;37.594;2023-03-14T03:54:45;6.1;;;3.6;;
74644;SDS011;63163;55.630;37.594;2023-03-14T03:55:46;5.2;;;3.1;;
74644;SDS011;63163;55.630;37.594;2023-03-14T03:56:46;6.8;;;3.4;;
74644;SDS011;63163;55.630;37.594;2023-03-14T03:57:47;7.1;;;2.9;;
74644;SDS011;63163;55.630;37.594;2023-03-14T03:58:47;6.1;;;3.4;;
74644;SDS011;63163;55.630;37.594;2023-03-14T03:59:48;8.7;;;3.7;;
74644;SDS011;63163;55.630;37.594;2023-03-14T04:00:48;8.7;;;4.1;;
74644;SDS011;63163;55.630;37.594;2023-03-14T04:01:49;5.6;;;3.5;;
74644;SDS011;63163;55.630;37.594;2023-03-14T04:02:49;8.7;;;3.9;;
74644;SDS011;63163;55.630;37.594;2023-03-14T04:03:50;6.6;;;3.8;;
74644;SDS011;63163;55.630;37.594;2023-03-14T04:04:50;4.2;;;2.4;;
74644;SDS011;63163;55.630;37.594;2023-03-14T04:05:57;6.8;;;3.7;;
74644;SDS011;63163;55.630;37.594;2023-03-14T04:06:58;6.4;;;3.5;;
74644;SDS011;63163;55.630;37.594;2023-03-14T04:07:58;7.6;;;3.8;;
74644;SDS011;63163;55.630;37.594;2023-03-14T04:08:59;7.6;;;3.6;;
74644;SDS011;63163;55.630;37.594;2023-03-14T04:10:00;6.9;;;3.1;;
74644;SDS011;63163;55.630;37.594;2023-03-14T04:11:00;6.2;;;3.6;;
74644;SDS011;63163;55.630;37.594;2023-03-14T04:12:01;6.7;;;3.8;;
74644;SDS011;63163;55.630;37.594;2023-03-14T04:13:02;7.0;;;3.8;;
74644;SDS011;63163;55.630;37.594;2023-03-14T04:14:02;6.6;;;3.5;;
74644;SDS011;63163;55.630;37.594;2023-03-14T04:15:03;7.1;;;3.5;;
74644;SDS011;63163;55.630;37.594;2023-03-14T04:16:08;6.0;;;3.2;;
74644;SDS011;63163;55.630;37.594;2023-03-14T04:17:09;7.5;;;4.0;;
74644;SDS011;63163;55.630;37.594;2023-03-14T04:18:10;6.7;;;3.6;;
74644;SDS011;63163;55.630;37.594;2023-03-14T04:19:10;6.5;;;3.8;;
74644;SDS011;63163;55.630;37.594;2023-03-14T04:20:11;6.7;;;3.9;;
74644;SDS011;63163;55.630;37.594;2023-03-14T04:21:12;3.7;;;2.7;;
74644;SDS011;63163;55.630;37.594;2023-03-14T04:22:13;7.0;;;3.3;;
74644;SDS011;63163;55.630;37.594;2023-03-14T04:23:13;7.0;;;3.5;;
74644;SDS011;63163;55.630;37.594;2023-03-14T04:24:14;4.5;;;3.0;;
74644;SDS011;63163;55.630;37.594;2023-03-14T04:25:14;4.6;;;2.8;;
74644;SDS011;63163;55.630;37.594;2023-03-14T04:26:17;3.6;;;2.5;;
74644;SDS011;63163;55.630;37.594;2023-03-14T04:27:18;8.9;;;3.8;;
74644;SDS011;63163;55.630;37.594;2023-03-14T04:28:18;5.6;;;3.4;;
74644;SDS011;63163;55.630;37.594;2023-03-14T04:29:19;5.4;;;3.0;;
74644;SDS011;63163;55.630;37.594;2023-03-14T04:30:19;5.4;;;3.0;;
74644;SDS011;63163;55.630;37.594;2023-03-14T04:31:20;5.2;;;3.2;;
74644;SDS011;63163;55.630;37.594;2023-03-14T04:32:21;6.3;;;2.9;;
74644;SDS011;63163;55.630;37.594;2023-03-14T04:33:21;6.6;;;3.8;;
74644;SDS011;63163;55.630;37.594;2023-03-14T04:34:22;8.1;;;3.8;;
74644;SDS011;63163;55.630;37.594;2023-03-14T04:35:22;7.5;;;3.6;;
74644;SDS011;63163;55.630;37.594;2023-03-14T04:36:23;7.2;;;3.4;;
74644;SDS011;63163;55.630;37.594;2023-03-14T04:37:23;4.8;;;2.4;;
74644;SDS011;63163;55.630;37.594;2023-03-14T04:38:24;4.2;;;2.5;;
74644;SDS011;63163;55.630;37.594;2023-03-14T04:39:25;6.2;;;3.2;;
74644;SDS011;63163;55.630;37.594;2023-03-14T04:40:25;8.1;;;3.3;;
74644;SDS011;63163;55.630;37.594;2023-03-14T04:41:26;5.8;;;3.1;;
74644;SDS011;63163;55.630;37.594;2023-03-14T04:42:26;4.5;;;2.6;;
74644;SDS011;63163;55.630;37.594;2023-03-14T04:43:27;4.9;;;2.9;;
74644;SDS011;63163;55.630;37.594;2023-03-14T04:44:28;6.6;;;3.5;;
74644;SDS011;63163;55.630;37.594;2023-03-14T04:45:28;4.9;;;2.7;;
74644;SDS011;63163;55.630;37.594;2023-03-14T04:46:29;5.5;;;3.5;;
74644;SDS011;63163;55.630;37.594;2023-03-14T04:47:29;6.8;;;3.7;;
74644;SDS011;63163;55.630;37.594;2023-03-14T04:48:30;2.7;;;1.5;;
74644;SDS011;63163;55.630;37.594;2023-03-14T04:49:30;5.8;;;3.1;;
74644;SDS011;63163;55.630;37.594;2023-03-14T04:50:31;5.4;;;2.7;;
74644;SDS011;63163;55.630;37.594;2023-03-14T04:51:31;5.6;;;3.2;;
74644;SDS011;63163;55.630;37.594;2023-03-14T04:52:32;5.4;;;2.8;;
74644;SDS011;63163;55.630;37.594;2023-03-14T04:53:32;3.7;;;2.5;;
74644;SDS011;63163;55.630;37.594;2023-03-14T04:54:34;6.7;;;3.2;;
74644;SDS011;63163;55.630;37.594;2023-03-14T04:55:34;5.9;;;2.9;;
74644;SDS011;63163;55.630;37.594;2023-03-14T04:56:35;6.5;;;3.0;;
74644;SDS011;63163;55.630;37.594;2023-03-14T04:57:37;5.3;;;3.0;;
74644;SDS011;63163;55.630;37.594;2023-03-14T04:58:37;5.0;;;2.1;;
74644;SDS011;63163;55.630;37.594;2023-03-14T04:59:38;6.2;;;3.2;;
74644;SDS011;63163;55.630;37.594;2023-03-14T05:00:38;4.5;;;2.3;;
74644;SDS011;63163;55.630;37.594;2023-03-14T05:01:39;3.7;;;2.4;;
74644;SDS011;63163;55.630;37.594;2023-03-14T05:02:41;5.9;;;2.9;;
74644;SDS011;63163;55.630;37.594;2023-03-14T05:03:41;4.6;;;2.8;;
74644;SDS011;63163;55.630;37.594;2023-03-14T05:04:42;3.6;;;2.2;;
74644;SDS011;63163;55.630;37.594;2023-03-14T05:05:42;4.4;;;2.9;;
74644;SDS011;63163;55.630;37.594;2023-03-14T05:06:43;4.7;;;2.3;;
74644;SDS011;63163;55.630;37.594;2023-03-14T05:07:44;4.6;;;2.5;;
74644;SDS011;63163;55.630;37.594;2023-03-14T05:08:45;4.3;;;2.4;;
74644;SDS011;63163;55.630;37.594;2023-03-14T05:09:45;6.6;;;3.2;;
74644;SDS011;63163;55.630;37.594;2023-03-14T05:10:51;4.2;;;2.6;;
74644;SDS011;63163;55.630;37.594;2023-03-14T05:11:51;5.1;;;2.6;;
74644;SDS011;63163;55.630;37.594;2023-03-14T05:12:52;6.5;;;2.5;;
74644;SDS011;63163;55.630;37.594;2023-03-14T05:13:52;4.8;;;2.5;;
74644;SDS011;63163;55.630;37.594;2023-03-14T05:14:53;6.5;;;2.9;;
74644;SDS011;63163;55.630;37.594;2023-03-14T05:15:53;5.5;;;2.7;;
74644;SDS011;63163;55.630;37.594;2023-03-14T05:16:55;5.0;;;2.2;;
74644;SDS011;63163;55.630;37.594;2023-03-14T05:17:56;2.9;;;1.7;;
74644;SDS011;63163;55.630;37.594;2023-03-14T05:18:56;4.2;;;2.4;;
74644;SDS011;63163;55.630;37.594;2023-03-14T05:19:57;2.8;;;1.9;;
74644;SDS011;63163;55.630;37.594;2023-03-14T05:20:57;5.3;;;2.3;;
74644;SDS011;63163;55.630;37.594;2023-03-14T05:21:58;3.6;;;2.2;;
74644;SDS011;63163;55.630;37.594;2023-03-14T05:22:58;5.8;;;2.7;;
74644;SDS011;63163;55.630;37.594;2023-03-14T05:23:59;6.5;;;2.0;;
74644;SDS011;63163;55.630;37.594;2023-03-14T05:24:59;4.7;;;2.1;;
74644;SDS011;63163;55.630;37.594;2023-03-14T05:26:00;3.0;;;1.7;;
74644;SDS011;63163;55.630;37.594;2023-03-14T05:27:00;4.0;;;1.7;;
74644;SDS011;63163;55.630;37.594;2023-03-14T05:28:01;4.2;;;2.3;;
74644;SDS011;63163;55.630;37.594;2023-03-14T05:29:01;4.2;;;2.4;;
74644;SDS011;63163;55.630;37.594;2023-03-14T05:30:02;4.2;;;2.4;;
74644;SDS011;63163;55.630;37.594;2023-03-14T05:31:06;4.5;;;1.7;;
74644;SDS011;63163;55.630;37.594;2023-03-14T05:32:06;7.6;;;2.1;;
74644;SDS011;63163;55.630;37.594;2023-03-14T05:33:07;3.1;;;1.8;;
74644;SDS011;63163;55.630;37.594;2023-03-14T05:34:07;3.8;;;2.2;;
74644;SDS011;63163;55.630;37.594;2023-03-14T05:35:08;4.0;;;2.0;;
74644;SDS011;63163;55.630;37.594;2023-03-14T05:36:09;4.0;;;1.8;;
74644;SDS011;63163;55.630;37.594;2023-03-14T05:37:09;2.4;;;1.7;;
74644;SDS011;63163;55.630;37.594;2023-03-14T05:38:10;2.8;;;1.5;;
74644;SDS011;63163;55.630;37.594;2023-03-14T05:39:10;2.5;;;1.2;;
74644;SDS011;63163;55.630;37.594;2023-03-14T05:40:11;4.6;;;2.1;;
74644;SDS011;63163;55.630;37.594;2023-03-14T05:41:11;3.3;;;1.9;;
74644;SDS011;63163;55.630;37.594;2023-03-14T05:42:12;3.1;;;1.8;;
74644;SDS011;63163;55.630;37.594;2023-03-14T05:43:13;3.5;;;2.1;;
74644;SDS011;63163;55.630;37.594;2023-03-14T05:44:14;4.3;;;2.1;;
74644;SDS011;63163;55.630;37.594;2023-03-14T05:45:15;3.2;;;1.8;;
74644;SDS011;63163;55.630;37.594;2023-03-14T05:46:16;4.1;;;2.1;;
74644;SDS011;63163;55.630;37.594;2023-03-14T05:47:16;5.4;;;2.1;;
74644;SDS011;63163;55.630;37.594;2023-03-14T05:48:17;3.6;;;1.6;;
74644;SDS011;63163;55.630;37.594;2023-03-14T05:49:18;5.4;;;2.5;;
74644;SDS011;63163;55.630;37.594;2023-03-14T05:50:18;3.8;;;1.9;;
74644;SDS011;63163;55.630;37.594;2023-03-14T05:51:19;4.0;;;2.3;;
74644;SDS011;63163;55.630;37.594;2023-03-14T05:52:19;5.8;;;2.2;;
74644;SDS011;63163;55.630;37.594;2023-03-14T05:53:20;4.9;;;2.4;;
74644;SDS011;63163;55.630;37.594;2023-03-14T05:54:20;3.2;;;1.6;;
74644;SDS011;63163;55.630;37.594;2023-03-14T05:55:21;5.9;;;2.2;;
74644;SDS011;63163;55.630;37.594;2023-03-14T05:56:21;4.2;;;2.3;;
74644;SDS011;63163;55.630;37.594;2023-03-14T05:57:22;5.0;;;1.7;;
74644;SDS011;63163;55.630;37.594;2023-03-14T05:58:23;5.1;;;2.3;;
74644;SDS011;63163;55.630;37.594;2023-03-14T05:59:23;3.5;;;1.8;;
74644;SDS011;63163;55.630;37.594;2023-03-14T06:00:24;3.7;;;2.0;;
74644;SDS011;63163;55.630;37.594;2023-03-14T06:01:24;2.8;;;1.4;;
74644;SDS011;63163;55.630;37.594;2023-03-14T06:02:25;2.6;;;1.8;;
74644;SDS011;63163;55.630;37.594;2023-03-14T06:03:25;2.0;;;1.1;;
74644;SDS011;63163;55.630;37.594;2023-03-14T06:04:26;2.7;;;1.6;;
74644;SDS011;63163;55.630;37.594;2023-03-14T06:05:26;1.9;;;1.1;;
74644;SDS011;63163;55.630;37.594;2023-03-14T06:06:27;4.5;;;2.1;;
74644;SDS011;63163;55.630;37.594;2023-03-14T06:07:27;5.5;;;2.0;;
74644;SDS011;63163;55.630;37.594;2023-03-14T06:08:28;3.7;;;1.9;;
74644;SDS011;63163;55.630;37.594;2023-03-14T06:09:28;3.0;;;1.7;;
74644;SDS011;63163;55.630;37.594;2023-03-14T06:10:29;3.6;;;1.7;;
74644;SDS011;63163;55.630;37.594;2023-03-14T06:11:29;4.7;;;1.8;;
74644;SDS011;63163;55.630;37.594;2023-03-14T06:12:30;3.0;;;1.6;;
74644;SDS011;63163;55.630;37.594;2023-03-14T06:13:30;3.5;;;1.8;;
74644;SDS011;63163;55.630;37.594;2023-03-14T06:14:31;3.9;;;1.8;;
74644;SDS011;63163;55.630;37.594;2023-03-14T06:15:32;2.3;;;1.5;;
74644;SDS011;63163;55.630;37.594;2023-03-14T06:16:33;3.0;;;1.5;;
74644;SDS011;63163;55.630;37.594;2023-03-14T06:17:33;2.9;;;1.8;;